Time;durP1;ratioP1;P1;durP2;ratioP2;P2;SDS_P1;SDS_P2;PMS_P1;PMS_P2;Temp;Humidity;BMP_temperature;BMP_pressure;BME280_temperature;BME280_humidity;BME280_pressure;Samples;Min_cycle;Max_cycle;Signal;HPM_P1;HPM_P2
2024/03/16 00:01:12;;;;;;;2.80;1.23;;;10.90;99.90;;;;;;4960206;28;20185;-82
2024/03/16 00:03:38;;;;;;;4.05;1.52;;;10.90;99.90;;;;;;4976266;28;20180;-83
2024/03/16 00:06:04;;;;;;;3.53;1.90;;;10.90;99.90;;;;;;4977435;28;20184;-84
2024/03/16 00:08:29;;;;;;;2.47;1.60;;;10.90;99.90;;;;;;4977261;28;20278;-83
2024/03/16 00:10:55;;;;;;;9.32;2.08;;;10.90;99.90;;;;;;4977177;28;20180;-85
2024/03/16 00:13:21;;;;;;;2.22;1.77;;;10.90;99.90;;;;;;4977390;28;20226;-83
2024/03/16 00:15:49;;;;;;;4.47;1.88;;;10.90;99.90;;;;;;4975900;28;20515;-84
2024/03/16 00:18:16;;;;;;;4.10;1.80;;;10.90;99.90;;;;;;4977338;28;20204;-82
2024/03/16 00:20:42;;;;;;;5.18;2.20;;;10.90;99.90;;;;;;4975551;28;20223;-84
2024/03/16 00:23:07;;;;;;;2.63;1.73;;;10.90;99.90;;;;;;4976472;28;20173;-83
2024/03/16 00:25:33;;;;;;;3.55;1.67;;;11.00;99.90;;;;;;4975837;28;20662;-83
2024/03/16 00:27:59;;;;;;;4.45;1.50;;;10.90;99.90;;;;;;4975500;28;20723;-84
2024/03/16 00:30:26;;;;;;;2.72;1.83;;;10.90;99.90;;;;;;4959610;28;20184;-83
2024/03/16 00:32:52;;;;;;;2.15;1.70;;;10.90;99.90;;;;;;4977063;28;20188;-83
2024/03/16 00:35:18;;;;;;;4.60;1.80;;;10.90;99.90;;;;;;4975710;28;20219;-83
2024/03/16 00:37:43;;;;;;;4.30;1.80;;;10.90;99.90;;;;;;4976983;28;20177;-82
2024/03/16 00:40:10;;;;;;;3.67;1.75;;;10.90;99.90;;;;;;4976868;28;20299;-81
2024/03/16 00:42:35;;;;;;;2.95;1.52;;;10.90;99.90;;;;;;4976494;28;20181;-84
2024/03/16 00:45:03;;;;;;;2.42;1.85;;;10.90;99.90;;;;;;4959410;28;20188;-83
2024/03/16 00:47:29;;;;;;;2.92;1.55;;;10.90;99.90;;;;;;4976713;28;20172;-83
2024/03/16 00:49:55;;;;;;;2.35;1.70;;;10.90;99.90;;;;;;4976163;28;20508;-83
2024/03/16 00:52:20;;;;;;;2.53;1.88;;;10.90;99.90;;;;;;4976727;28;20180;-83
2024/03/16 00:54:46;;;;;;;2.75;1.55;;;10.90;99.90;;;;;;4976695;28;20192;-84
2024/03/16 00:57:12;;;;;;;4.18;1.98;;;10.90;99.90;;;;;;4976228;28;20199;-82
2024/03/16 00:59:38;;;;;;;4.10;1.75;;;10.90;99.90;;;;;;4976362;28;20239;-83
2024/03/16 01:02:04;;;;;;;3.45;1.85;;;10.90;99.90;;;;;;4959187;28;20179;-82
2024/03/16 01:04:32;;;;;;;3.22;1.70;;;10.80;99.90;;;;;;4975373;28;20189;-81
2024/03/16 01:06:59;;;;;;;4.75;1.95;;;10.80;99.90;;;;;;4976549;28;20180;-84
2024/03/16 01:09:25;;;;;;;3.38;2.10;;;10.80;99.90;;;;;;4974935;28;20224;-83
2024/03/16 01:11:52;;;;;;;5.57;1.85;;;10.70;99.90;;;;;;4944252;29;20300;-84
2024/03/16 01:14:18;;;;;;;5.55;2.03;;;10.70;99.90;;;;;;4952536;29;20189;-83
2024/03/16 01:16:44;;;;;;;5.95;1.77;;;10.70;99.90;;;;;;4955564;29;20181;-83
2024/03/16 01:19:10;;;;;;;4.63;1.67;;;10.60;99.90;;;;;;4955208;29;20245;-84
2024/03/16 01:21:36;;;;;;;4.47;1.83;;;10.70;99.90;;;;;;4954984;29;20181;-83
2024/03/16 01:24:02;;;;;;;2.78;1.52;;;10.60;99.90;;;;;;4955508;29;20236;-83
2024/03/16 01:26:28;;;;;;;2.90;1.45;;;10.70;99.90;;;;;;4956284;29;20546;-83
2024/03/16 01:28:55;;;;;;;3.22;1.67;;;10.60;99.90;;;;;;4956514;29;20181;-83
2024/03/16 01:31:21;;;;;;;3.30;1.67;;;10.60;99.90;;;;;;4955446;29;20177;-83
2024/03/16 01:33:46;;;;;;;4.10;1.67;;;10.70;99.90;;;;;;4955053;28;20524;-83
2024/03/16 01:36:13;;;;;;;5.00;1.85;;;10.60;99.90;;;;;;4955067;29;20273;-84
2024/03/16 01:38:39;;;;;;;5.57;1.70;;;10.60;99.90;;;;;;4955156;29;20264;-85
2024/03/16 01:41:05;;;;;;;2.25;1.58;;;10.70;99.90;;;;;;4964379;28;20587;-82
2024/03/16 01:43:31;;;;;;;4.07;1.60;;;10.70;99.90;;;;;;4958657;28;20172;-83
2024/03/16 01:45:57;;;;;;;3.95;1.58;;;10.70;99.90;;;;;;4975704;28;20184;-84
2024/03/16 01:48:24;;;;;;;3.40;1.50;;;10.60;99.90;;;;;;4975640;28;20183;-83
2024/03/16 01:50:51;;;;;;;2.08;1.40;;;10.60;99.90;;;;;;4975640;28;20231;-83
2024/03/16 01:53:17;;;;;;;3.15;1.50;;;10.60;99.90;;;;;;4975746;28;20193;-84
2024/03/16 01:55:43;;;;;;;2.97;1.48;;;10.60;99.90;;;;;;4958104;28;20204;-83
2024/03/16 01:58:09;;;;;;;3.33;1.50;;;10.60;99.90;;;;;;4975131;28;20180;-83
2024/03/16 02:00:35;;;;;;;5.03;1.50;;;10.60;99.90;;;;;;4975188;28;20212;-84
2024/03/16 02:03:02;;;;;;;4.45;1.48;;;10.60;99.90;;;;;;4958161;28;20204;-84
2024/03/16 02:05:28;;;;;;;2.63;1.50;;;10.50;99.90;;;;;;4975267;28;20188;-83
2024/03/16 02:07:54;;;;;;;4.03;1.55;;;10.50;99.90;;;;;;4975104;28;20224;-83
2024/03/16 02:10:21;;;;;;;3.08;1.88;;;10.50;99.90;;;;;;4974014;28;20620;-83
2024/03/16 02:12:47;;;;;;;3.78;1.45;;;10.50;99.90;;;;;;4957817;28;20207;-83
2024/03/16 02:15:13;;;;;;;2.17;1.60;;;10.50;99.90;;;;;;4975177;28;20612;-84
2024/03/16 02:17:40;;;;;;;5.28;1.88;;;10.50;99.90;;;;;;4975258;28;20680;-83
2024/03/16 02:20:14;;;;;;;5.75;1.75;;;10.40;99.90;;;;;;4975040;28;20643;-83
2024/03/16 02:22:41;;;;;;;3.85;1.67;;;10.40;99.90;;;;;;4975106;28;20171;-84
2024/03/16 02:25:08;;;;;;;5.35;1.80;;;10.40;99.90;;;;;;4975031;28;20267;-83
2024/03/16 02:27:34;;;;;;;3.75;1.60;;;10.30;99.90;;;;;;4974763;28;20176;-84
2024/03/16 02:30:00;;;;;;;2.85;1.50;;;10.40;99.90;;;;;;4975087;28;20181;-83
2024/03/16 02:32:25;;;;;;;4.65;1.88;;;10.40;99.90;;;;;;4973951;28;20173;-84
2024/03/16 02:34:51;;;;;;;2.95;1.83;;;10.40;99.90;;;;;;4957645;28;20180;-83
2024/03/16 02:37:19;;;;;;;5.57;2.10;;;10.40;99.90;;;;;;4957536;28;20227;-83
2024/03/16 02:39:45;;;;;;;4.93;1.70;;;10.40;99.90;;;;;;4974934;28;20594;-83
2024/03/16 02:42:11;;;;;;;2.55;1.48;;;10.40;99.90;;;;;;4956968;28;20185;-83
2024/03/16 02:44:37;;;;;;;4.80;1.63;;;10.40;99.90;;;;;;4975602;28;20188;-83
2024/03/16 02:47:04;;;;;;;7.70;2.10;;;10.40;99.90;;;;;;4977484;28;20181;-83
2024/03/16 02:49:31;;;;;;;4.13;1.77;;;10.40;99.90;;;;;;4961360;28;20631;-84
2024/03/16 02:51:57;;;;;;;4.40;1.75;;;10.30;99.90;;;;;;4961617;28;20176;-83
2024/03/16 02:54:23;;;;;;;5.90;1.98;;;10.30;99.90;;;;;;4978795;28;20215;-83
2024/03/16 02:56:49;;;;;;;4.00;1.70;;;10.30;99.90;;;;;;4978359;28;20168;-83
2024/03/16 02:59:15;;;;;;;3.35;1.60;;;10.30;99.90;;;;;;4978674;28;20219;-82
2024/03/16 03:01:40;;;;;;;2.67;1.65;;;10.30;99.90;;;;;;4977418;28;20635;-83
2024/03/16 03:04:07;;;;;;;6.95;1.98;;;10.20;99.90;;;;;;4977447;28;20642;-83
2024/03/16 03:06:33;;;;;;;5.38;1.95;;;10.20;99.90;;;;;;4977125;28;20187;-85
2024/03/16 03:08:59;;;;;;;5.20;1.80;;;10.20;99.90;;;;;;4978326;28;20667;-83
2024/03/16 03:11:26;;;;;;;8.88;2.30;;;10.20;99.90;;;;;;4976981;28;20651;-83
2024/03/16 03:13:52;;;;;;;3.85;1.92;;;10.10;99.90;;;;;;4978465;28;20173;-84
2024/03/16 03:16:19;;;;;;;3.15;1.80;;;10.10;99.90;;;;;;4977129;28;20195;-84
2024/03/16 03:18:47;;;;;;;4.93;2.00;;;10.10;99.90;;;;;;4960918;28;20543;-83
2024/03/16 03:21:13;;;;;;;5.30;1.95;;;10.10;99.90;;;;;;4976899;28;20191;-83
2024/03/16 03:23:39;;;;;;;5.72;1.98;;;10.10;99.90;;;;;;4960884;28;20616;-84
2024/03/16 03:26:05;;;;;;;4.65;2.00;;;10.20;99.90;;;;;;4977910;28;20596;-83
2024/03/16 03:28:31;;;;;;;4.55;2.00;;;10.20;99.90;;;;;;5371819;23;20619;-90
2024/03/16 03:30:57;;;;;;;5.65;1.90;;;10.20;99.90;;;;;;4972354;28;20275;-88
2024/03/16 03:33:22;;;;;;;4.07;1.98;;;10.20;99.90;;;;;;4959533;28;20173;-89
2024/03/16 03:35:48;;;;;;;5.95;1.95;;;10.20;99.90;;;;;;4958887;29;20181;-87
2024/03/16 03:38:14;;;;;;;4.20;2.10;;;10.20;99.90;;;;;;4974918;28;20219;-88
2024/03/16 03:40:41;;;;;;;5.28;2.22;;;10.20;99.90;;;;;;4978194;28;20263;-89
2024/03/16 03:43:17;;;;;;;9.23;2.20;;;10.20;99.90;;;;;;4958834;29;20209;-87
2024/03/16 03:48:25;;;;;;;3.25;2.00;;;10.10;99.90;;;;;;4979002;28;20231;-90
2024/03/16 03:51:06;;;;;;;3.97;1.80;;;10.10;99.90;;;;;;4978219;28;20192;-88
2024/03/16 03:53:32;;;;;;;3.58;2.08;;;10.10;99.90;;;;;;4978291;28;20181;-88
2024/03/16 03:55:59;;;;;;;3.25;1.70;;;10.00;99.90;;;;;;4977783;28;20231;-89
2024/03/16 03:58:26;;;;;;;3.70;2.00;;;10.00;99.90;;;;;;4977344;28;20184;-90
2024/03/16 04:00:53;;;;;;;7.47;1.83;;;9.90;99.90;;;;;;4977937;28;20235;-87
2024/03/16 04:03:18;;;;;;;6.18;1.88;;;9.90;99.90;;;;;;4977792;28;20181;-88
2024/03/16 04:05:44;;;;;;;6.72;2.55;;;10.00;99.90;;;;;;4977200;28;20614;-90
2024/03/16 04:08:10;;;;;;;5.13;2.10;;;10.00;99.90;;;;;;4977569;28;20212;-89
2024/03/16 04:10:38;;;;;;;6.47;2.20;;;10.00;99.90;;;;;;4977620;28;20184;-88
2024/03/16 04:13:04;;;;;;;5.85;2.05;;;9.90;99.90;;;;;;4978165;28;20196;-88
2024/03/16 04:15:30;;;;;;;8.25;2.20;;;9.90;99.90;;;;;;4977152;28;20278;-89
2024/03/16 04:17:56;;;;;;;7.95;2.00;;;10.00;99.90;;;;;;4977658;28;20187;-90
2024/03/16 04:20:36;;;;;;;6.03;2.05;;;10.00;99.90;;;;;;4977609;28;20215;-88
2024/03/16 04:23:02;;;;;;;7.55;2.08;;;10.00;99.90;;;;;;4977488;28;20200;-90
2024/03/16 04:25:28;;;;;;;9.55;2.30;;;10.00;99.90;;;;;;4977584;28;20236;-90
2024/03/16 04:27:54;;;;;;;5.05;2.08;;;10.00;99.90;;;;;;4977002;28;20224;-89
2024/03/16 04:30:28;;;;;;;5.90;2.08;;;10.10;99.90;;;;;;4977501;28;20184;-90
2024/03/16 04:32:53;;;;;;;3.33;1.95;;;10.10;99.90;;;;;;4977280;28;20169;-89
2024/03/16 04:35:19;;;;;;;5.85;2.20;;;10.20;99.90;;;;;;4977309;28;20185;-88
2024/03/16 04:37:45;;;;;;;5.50;2.30;;;10.20;99.90;;;;;;4977211;28;20192;-88
2024/03/16 04:40:11;;;;;;;5.18;2.20;;;10.20;99.90;;;;;;4976936;28;20269;-89
2024/03/16 04:42:37;;;;;;;7.50;2.30;;;10.20;99.90;;;;;;4977236;28;20263;-87
2024/03/16 04:45:03;;;;;;;5.43;2.08;;;10.20;99.90;;;;;;4976829;28;20192;-89
2024/03/16 04:47:31;;;;;;;6.80;2.05;;;10.20;99.90;;;;;;4976972;28;20181;-86
2024/03/16 04:49:59;;;;;;;5.65;2.10;;;10.20;99.90;;;;;;4977048;28;20180;-88
2024/03/16 04:52:25;;;;;;;6.22;1.90;;;10.20;99.90;;;;;;4977013;28;20235;-89
2024/03/16 04:54:51;;;;;;;5.43;2.00;;;10.20;99.90;;;;;;4977125;28;20181;-87
2024/03/16 04:57:18;;;;;;;4.10;2.08;;;10.10;99.90;;;;;;4976672;28;20176;-89
2024/03/16 04:59:44;;;;;;;5.50;2.13;;;10.10;99.90;;;;;;4971154;28;20705;-88
2024/03/16 05:02:09;;;;;;;5.43;2.00;;;10.10;99.90;;;;;;4960390;28;20188;-89
2024/03/16 05:04:35;;;;;;;5.82;2.25;;;10.10;99.90;;;;;;4960582;28;20184;-88
2024/03/16 05:07:01;;;;;;;4.53;2.13;;;10.10;99.90;;;;;;4960331;28;20191;-89
2024/03/16 05:09:27;;;;;;;7.03;2.17;;;10.10;99.90;;;;;;4960448;28;20238;-89
2024/03/16 05:11:53;;;;;;;4.25;2.03;;;10.10;99.90;;;;;;4960594;28;20679;-88
2024/03/16 05:14:18;;;;;;;4.82;2.20;;;10.10;99.90;;;;;;4977276;28;20256;-87
2024/03/16 05:16:44;;;;;;;6.50;2.50;;;10.20;99.90;;;;;;4960099;28;20176;-89
2024/03/16 05:19:10;;;;;;;5.75;2.00;;;10.10;99.90;;;;;;4977385;28;20212;-89
2024/03/16 05:21:37;;;;;;;7.00;2.17;;;10.10;99.90;;;;;;4960329;28;20188;-89
2024/03/16 05:24:03;;;;;;;5.53;2.20;;;10.20;99.90;;;;;;4960211;28;20181;-89
2024/03/16 05:26:30;;;;;;;5.18;2.30;;;10.20;99.90;;;;;;4960187;28;20513;-91
2024/03/16 05:28:56;;;;;;;6.47;2.42;;;10.20;99.90;;;;;;4954710;28;20236;-87
2024/03/16 05:31:23;;;;;;;3.17;2.22;;;10.20;99.90;;;;;;4976230;28;20622;-89
2024/03/16 05:33:49;;;;;;;8.00;2.42;;;10.10;99.90;;;;;;4976321;28;20180;-88
2024/03/16 05:36:16;;;;;;;7.47;2.63;;;10.10;99.90;;;;;;4975704;28;20180;-90
2024/03/16 05:38:48;;;;;;;4.55;2.47;;;10.10;99.90;;;;;;4974156;28;20176;-90
2024/03/16 05:41:16;;;;;;;3.75;2.33;;;10.10;99.90;;;;;;4976131;28;20181;-87
2024/03/16 05:43:44;;;;;;;5.15;2.20;;;10.10;99.90;;;;;;4964848;28;20210;-91
2024/03/16 05:46:10;;;;;;;7.15;2.72;;;10.00;99.90;;;;;;4973088;28;20244;-88
2024/03/16 05:48:35;;;;;;;3.45;2.60;;;10.00;99.90;;;;;;4975402;28;20178;-88
2024/03/16 05:51:15;;;;;;;7.25;3.13;;;10.00;99.90;;;;;;4976097;28;20211;-90
2024/03/16 05:53:41;;;;;;;5.35;2.80;;;9.90;99.90;;;;;;4975663;28;20177;-89
2024/03/16 05:56:07;;;;;;;6.20;2.85;;;10.00;99.90;;;;;;4975803;28;20191;-90
2024/03/16 05:58:33;;;;;;;4.32;2.60;;;9.90;99.90;;;;;;4975694;28;20177;-87
2024/03/16 06:01:14;;;;;;;5.30;2.50;;;9.90;99.90;;;;;;4975782;28;20180;-87
2024/03/16 06:03:39;;;;;;;6.72;2.50;;;10.00;99.90;;;;;;4976919;28;20199;-90
2024/03/16 06:06:05;;;;;;;3.75;2.13;;;10.00;99.90;;;;;;4975554;28;20181;-89
2024/03/16 06:08:32;;;;;;;8.68;2.83;;;10.10;99.90;;;;;;4975194;28;20239;-90
2024/03/16 06:10:59;;;;;;;8.13;3.00;;;10.10;99.90;;;;;;4975746;28;20646;-88
2024/03/16 06:13:25;;;;;;;6.40;2.30;;;10.20;99.90;;;;;;4975686;28;20177;-89
2024/03/16 06:15:55;;;;;;;3.90;2.40;;;10.20;99.90;;;;;;4975306;28;20184;-88
2024/03/16 06:18:21;;;;;;;4.03;2.10;;;10.20;99.90;;;;;;4975262;28;20512;-90
2024/03/16 06:20:48;;;;;;;4.75;2.10;;;10.20;99.90;;;;;;4974505;28;20208;-88
2024/03/16 06:23:14;;;;;;;8.50;2.90;;;10.20;99.90;;;;;;4974987;28;20177;-88
2024/03/16 06:25:50;;;;;;;5.55;2.58;;;10.20;99.90;;;;;;4975529;28;20272;-89
2024/03/16 06:28:17;;;;;;;4.55;2.50;;;10.20;99.90;;;;;;4975483;28;20255;-89
2024/03/16 06:31:07;;;;;;;5.63;2.40;;;10.20;99.90;;;;;;4967578;28;20169;-87
2024/03/16 06:33:33;;;;;;;4.10;2.35;;;10.20;99.90;;;;;;4975257;28;20219;-88
2024/03/16 06:36:07;;;;;;;4.93;2.08;;;10.20;99.90;;;;;;4975277;28;20208;-88
2024/03/16 06:38:33;;;;;;;6.65;2.45;;;10.20;99.90;;;;;;4974899;28;20243;-88
2024/03/16 06:41:05;;;;;;;7.05;2.67;;;10.20;99.90;;;;;;4975171;28;20180;-88
2024/03/16 06:43:32;;;;;;;4.60;2.75;;;10.20;99.90;;;;;;4965799;28;20317;-89
2024/03/16 06:46:00;;;;;;;5.55;2.28;;;10.20;99.90;;;;;;4952773;28;20192;-88
2024/03/16 06:48:26;;;;;;;5.38;2.70;;;10.30;99.90;;;;;;4950699;28;20188;-87
2024/03/16 06:50:52;;;;;;;6.55;2.30;;;10.30;99.90;;;;;;4958729;28;20180;-87
2024/03/16 06:53:17;;;;;;;4.78;2.63;;;10.30;99.90;;;;;;4958973;28;20686;-89
2024/03/16 06:55:50;;;;;;;4.70;2.60;;;10.30;99.90;;;;;;4952105;28;20203;-87
2024/03/16 06:58:16;;;;;;;5.15;2.42;;;10.30;99.90;;;;;;4961319;28;20590;-87
2024/03/16 07:00:41;;;;;;;6.35;2.75;;;10.30;99.90;;;;;;4958634;28;20307;-88
2024/03/16 07:03:07;;;;;;;5.90;2.65;;;10.30;99.90;;;;;;4946253;28;20204;-88
2024/03/16 07:05:33;;;;;;;5.60;2.75;;;10.30;99.90;;;;;;4953721;28;20635;-88
2024/03/16 07:08:02;;;;;;;4.50;2.67;;;10.30;99.90;;;;;;4955057;29;20177;-90
2024/03/16 07:10:27;;;;;;;8.23;3.58;;;10.30;99.90;;;;;;4970448;28;20207;-89
2024/03/16 07:12:54;;;;;;;6.13;2.92;;;10.30;99.90;;;;;;4954627;28;20523;-88
2024/03/16 07:15:20;;;;;;;7.18;2.83;;;10.30;99.90;;;;;;4955171;28;20180;-88
2024/03/16 07:17:46;;;;;;;6.32;3.00;;;10.40;99.90;;;;;;4958436;28;20663;-87
2024/03/16 07:20:12;;;;;;;6.95;3.33;;;10.40;99.90;;;;;;4958701;28;20722;-89
2024/03/16 07:22:40;;;;;;;6.40;3.50;;;10.40;99.90;;;;;;4958317;28;20208;-87
2024/03/16 07:25:07;;;;;;;5.65;4.15;;;10.40;99.90;;;;;;4974551;28;20551;-87
2024/03/16 07:27:33;;;;;;;7.47;4.35;;;10.40;99.90;;;;;;4958359;28;20578;-88
2024/03/16 07:29:59;;;;;;;9.10;4.20;;;10.40;99.90;;;;;;4958696;28;20220;-88
2024/03/16 07:32:27;;;;;;;10.88;4.90;;;10.40;99.90;;;;;;4977899;28;20181;-88
2024/03/16 07:34:53;;;;;;;10.32;4.63;;;10.40;99.90;;;;;;4978543;28;20180;-87
2024/03/16 07:37:18;;;;;;;14.10;5.20;;;10.40;99.90;;;;;;4977815;28;20185;-88
2024/03/16 07:39:44;;;;;;;9.70;5.20;;;10.40;99.90;;;;;;4978232;28;20212;-88
2024/03/16 07:42:15;;;;;;;12.00;5.85;;;10.50;99.90;;;;;;4962517;28;20599;-88
2024/03/16 07:44:44;;;;;;;14.13;5.85;;;10.60;99.90;;;;;;4977934;28;20271;-85
2024/03/16 07:47:12;;;;;;;9.70;5.57;;;10.60;99.90;;;;;;4961854;28;20267;-90
2024/03/16 07:49:38;;;;;;;13.02;6.28;;;10.70;99.90;;;;;;4978095;28;20619;-88
2024/03/16 07:52:05;;;;;;;11.13;5.85;;;10.90;99.90;;;;;;4961905;28;20181;-89
2024/03/16 07:54:31;;;;;;;11.27;6.15;;;11.00;99.90;;;;;;4978082;28;20177;-88
2024/03/16 07:56:58;;;;;;;9.93;6.00;;;11.00;99.90;;;;;;4977836;28;20184;-87
2024/03/16 07:59:24;;;;;;;13.88;6.78;;;10.90;99.90;;;;;;4977765;28;20220;-87
2024/03/16 08:01:50;;;;;;;14.13;6.65;;;10.90;99.90;;;;;;4961648;28;20195;-85
2024/03/16 08:04:16;;;;;;;10.27;7.07;;;10.90;99.90;;;;;;4961869;28;20600;-87
2024/03/16 08:06:42;;;;;;;10.45;7.68;;;10.80;99.90;;;;;;4961391;28;20173;-87
2024/03/16 08:09:11;;;;;;;12.90;7.72;;;10.70;99.90;;;;;;4961316;28;20292;-87
2024/03/16 08:11:38;;;;;;;15.25;8.38;;;10.70;99.90;;;;;;4977613;28;20203;-86
2024/03/16 08:14:11;;;;;;;16.08;7.95;;;10.60;99.90;;;;;;4961629;28;20521;-87
2024/03/16 08:16:36;;;;;;;11.38;8.18;;;10.60;99.90;;;;;;4977587;28;20526;-88
2024/03/16 08:19:02;;;;;;;15.45;9.23;;;10.60;99.90;;;;;;4961330;28;20204;-87
2024/03/16 08:21:28;;;;;;;12.90;9.38;;;10.60;99.90;;;;;;4978704;28;20523;-89
2024/03/16 08:23:54;;;;;;;15.63;9.45;;;10.60;99.90;;;;;;4976840;28;20600;-88
2024/03/16 08:26:19;;;;;;;12.52;9.38;;;10.60;99.90;;;;;;4961253;28;20180;-87
2024/03/16 08:28:45;;;;;;;16.92;9.98;;;10.60;99.90;;;;;;4957968;29;20277;-88
2024/03/16 08:31:11;;;;;;;12.93;8.60;;;10.60;99.90;;;;;;4974123;28;20182;-87
2024/03/16 08:33:40;;;;;;;12.40;8.43;;;10.60;99.90;;;;;;4974343;28;20188;-88
2024/03/16 08:36:06;;;;;;;10.07;7.95;;;10.60;99.90;;;;;;4974170;28;20181;-90
2024/03/16 08:38:36;;;;;;;9.43;6.55;;;10.60;99.90;;;;;;4973645;28;20655;-87
2024/03/16 08:41:02;;;;;;;10.15;6.20;;;10.60;99.90;;;;;;4974007;28;20590;-88
2024/03/16 08:43:32;;;;;;;9.30;5.50;;;10.60;99.90;;;;;;4972638;28;20197;-87
2024/03/16 08:46:03;;;;;;;6.57;4.50;;;10.50;99.90;;;;;;4973799;28;20180;-88
2024/03/16 08:48:29;;;;;;;3.35;2.58;;;10.50;99.90;;;;;;4973522;28;20218;-85
2024/03/16 08:50:57;;;;;;;3.03;2.28;;;10.30;99.90;;;;;;4958636;29;20258;-86
2024/03/16 08:53:26;;;;;;;4.80;2.88;;;10.20;99.90;;;;;;4973441;28;20652;-86
2024/03/16 08:55:58;;;;;;;4.78;3.17;;;10.10;99.90;;;;;;4958566;29;20168;-86
2024/03/16 08:58:27;;;;;;;4.45;3.45;;;10.00;99.90;;;;;;4958725;28;20258;-85
2024/03/16 09:00:53;;;;;;;4.55;3.38;;;10.00;99.90;;;;;;4973207;28;20228;-86
2024/03/16 09:03:20;;;;;;;4.22;3.60;;;10.00;99.90;;;;;;4973505;28;20568;-85
2024/03/16 09:05:46;;;;;;;5.30;3.97;;;10.00;99.90;;;;;;4958531;28;20245;-84
2024/03/16 09:08:12;;;;;;;5.38;4.15;;;10.00;99.90;;;;;;4972817;28;20216;-83
2024/03/16 09:10:38;;;;;;;7.43;4.30;;;10.00;99.90;;;;;;4973072;28;20185;-83
2024/03/16 09:13:10;;;;;;;6.07;3.42;;;9.90;99.90;;;;;;4957983;28;20173;-83
2024/03/16 09:15:36;;;;;;;5.57;3.90;;;9.90;99.90;;;;;;4958125;28;20196;-83
2024/03/16 09:18:03;;;;;;;3.90;3.38;;;9.90;99.90;;;;;;4972730;28;20216;-83
2024/03/16 09:20:29;;;;;;;5.05;4.07;;;9.90;99.90;;;;;;4972573;28;20208;-83
2024/03/16 09:22:57;;;;;;;5.30;4.07;;;9.90;99.90;;;;;;4957560;28;20260;-84
2024/03/16 09:25:23;;;;;;;4.90;4.07;;;9.90;99.90;;;;;;4972462;28;20185;-85
2024/03/16 09:27:49;;;;;;;4.57;3.33;;;9.90;99.90;;;;;;4972233;28;20527;-85
2024/03/16 09:30:16;;;;;;;6.05;2.55;;;9.90;99.90;;;;;;4956613;29;20219;-84
2024/03/16 09:32:42;;;;;;;3.83;2.53;;;9.80;99.90;;;;;;4945459;29;20197;-83
2024/03/16 09:35:13;;;;;;;3.20;2.17;;;9.70;99.90;;;;;;4953344;29;20620;-84
2024/03/16 09:37:38;;;;;;;2.95;2.22;;;9.70;99.90;;;;;;4935066;29;20320;-84
2024/03/16 09:40:13;;;;;;;3.42;2.40;;;9.70;99.90;;;;;;4940179;29;20308;-84
2024/03/16 09:42:39;;;;;;;3.53;1.95;;;9.80;99.90;;;;;;4940273;29;20267;-85
2024/03/16 09:45:21;;;;;;;3.90;1.60;;;9.80;99.90;;;;;;4940429;29;20647;-84
2024/03/16 09:47:48;;;;;;;2.45;1.40;;;9.80;99.90;;;;;;4940404;29;20176;-85
2024/03/16 09:50:14;;;;;;;4.10;1.45;;;9.70;99.90;;;;;;4940221;29;20523;-83
2024/03/16 09:52:43;;;;;;;2.08;0.90;;;9.70;99.90;;;;;;4939661;29;20181;-84
2024/03/16 09:55:16;;;;;;;3.03;0.90;;;9.50;99.90;;;;;;4956771;28;20182;-84
2024/03/16 09:57:43;;;;;;;1.23;0.63;;;9.40;99.90;;;;;;4955583;29;20185;-84
2024/03/16 10:00:10;;;;;;;2.45;0.95;;;9.30;99.90;;;;;;4955625;29;20220;-82
2024/03/16 10:02:40;;;;;;;1.90;0.98;;;9.40;99.90;;;;;;4939738;29;20332;-85
2024/03/16 10:05:11;;;;;;;4.70;1.23;;;9.60;99.90;;;;;;4939864;29;20256;-84
2024/03/16 10:07:40;;;;;;;1.75;1.00;;;9.70;99.90;;;;;;4932066;29;20194;-85
2024/03/16 10:10:10;;;;;;;3.70;1.00;;;9.70;99.90;;;;;;4952483;29;20183;-86
2024/03/16 10:12:40;;;;;;;3.95;1.38;;;9.70;99.90;;;;;;4955833;29;20185;-85
2024/03/16 10:15:19;;;;;;;3.42;0.85;;;9.60;99.90;;;;;;4955614;29;20192;-85
2024/03/16 10:17:45;;;;;;;2.67;0.90;;;9.60;99.90;;;;;;4956086;29;20173;-86
2024/03/16 10:20:16;;;;;;;3.45;1.00;;;9.60;99.90;;;;;;4957220;29;20295;-85
2024/03/16 10:22:46;;;;;;;4.73;0.70;;;9.60;99.90;;;;;;4955945;29;20184;-84
2024/03/16 10:25:15;;;;;;;4.07;1.10;;;9.50;99.90;;;;;;4955810;29;20279;-84
2024/03/16 10:27:43;;;;;;;2.50;0.93;;;9.40;99.90;;;;;;4956746;28;20239;-85
2024/03/16 10:30:11;;;;;;;2.53;0.70;;;9.40;99.90;;;;;;4976269;28;20176;-85
2024/03/16 10:32:38;;;;;;;2.77;0.70;;;9.40;99.90;;;;;;4974957;28;20172;-85
2024/03/16 10:35:14;;;;;;;2.73;0.93;;;9.40;99.90;;;;;;4975174;28;20208;-86
2024/03/16 10:37:43;;;;;;;3.47;0.80;;;9.40;99.90;;;;;;4974536;28;20188;-85
2024/03/16 10:40:16;;;;;;;4.45;1.00;;;9.40;99.90;;;;;;4974961;28;20216;-84
2024/03/16 10:42:47;;;;;;;6.80;1.60;;;9.30;99.90;;;;;;4976272;28;20179;-87
2024/03/16 10:45:14;;;;;;;4.72;1.15;;;9.70;99.90;;;;;;4974890;28;20195;-84
2024/03/16 10:48:02;;;;;;;4.70;0.93;;;10.00;99.90;;;;;;4974992;28;20172;-85
2024/03/16 10:50:29;;;;;;;4.25;1.35;;;10.20;99.90;;;;;;4974863;28;20185;-83
2024/03/16 10:52:56;;;;;;;3.20;1.48;;;10.60;99.90;;;;;;4974649;28;20177;-84
2024/03/16 10:55:25;;;;;;;3.65;1.23;;;10.60;99.90;;;;;;4975979;28;20627;-85
2024/03/16 10:57:53;;;;;;;3.72;1.00;;;10.30;99.90;;;;;;4974651;28;20243;-86
2024/03/16 11:00:34;;;;;;;6.22;1.42;;;10.00;99.90;;;;;;4974713;28;20216;-86
2024/03/16 11:03:07;;;;;;;5.40;1.15;;;9.80;99.90;;;;;;4974799;28;20179;-85
2024/03/16 11:05:45;;;;;;;4.53;1.13;;;9.60;99.90;;;;;;4975250;28;20181;-86
2024/03/16 11:08:13;;;;;;;7.97;1.70;;;9.50;99.90;;;;;;4976460;28;20181;-85
2024/03/16 11:10:41;;;;;;;8.65;1.52;;;9.30;99.90;;;;;;4961946;28;20177;-83
2024/03/16 11:13:15;;;;;;;4.65;1.17;;;9.10;99.90;;;;;;4978060;28;20188;-85
2024/03/16 11:15:42;;;;;;;7.53;1.40;;;9.00;99.90;;;;;;4976806;28;20707;-87
2024/03/16 11:18:19;;;;;;;6.53;1.80;;;9.00;99.90;;;;;;4979571;28;20255;-87
2024/03/16 11:20:55;;;;;;;9.52;2.00;;;9.10;99.90;;;;;;4977580;28;20263;-86
2024/03/16 11:23:29;;;;;;;5.40;1.33;;;9.10;99.90;;;;;;4977935;28;20260;-88
2024/03/16 11:26:01;;;;;;;4.57;1.00;;;9.00;99.90;;;;;;4976263;28;20180;-84
2024/03/16 11:28:44;;;;;;;7.97;1.25;;;9.00;99.90;;;;;;4977486;28;20260;-86
2024/03/16 11:31:39;;;;;;;5.20;1.40;;;9.00;99.90;;;;;;4974780;28;20625;-87
2024/03/16 11:34:13;;;;;;;8.53;1.53;;;9.00;99.90;;;;;;4956795;28;20180;-84
2024/03/16 11:36:52;;;;;;;7.73;1.77;;;9.00;99.90;;;;;;4961960;28;20173;-85
2024/03/16 11:39:24;;;;;;;4.93;1.20;;;9.00;99.90;;;;;;4961771;28;20259;-85
2024/03/16 11:41:53;;;;;;;6.97;1.33;;;9.00;99.90;;;;;;4961955;28;20260;-85
2024/03/16 11:44:19;;;;;;;3.42;1.10;;;9.00;99.90;;;;;;4961839;28;20565;-86
2024/03/16 11:46:46;;;;;;;5.00;1.20;;;9.10;99.90;;;;;;4961033;28;20202;-91
2024/03/16 11:49:16;;;;;;;4.63;1.65;;;9.10;99.90;;;;;;4961873;28;20204;-86
2024/03/16 11:51:47;;;;;;;5.40;1.30;;;9.20;99.90;;;;;;4961919;28;20192;-87
2024/03/16 11:54:14;;;;;;;6.32;1.40;;;9.30;99.90;;;;;;4960372;28;20575;-87
2024/03/16 11:56:41;;;;;;;6.23;1.13;;;9.50;99.90;;;;;;4945735;28;20624;-86
2024/03/16 11:59:13;;;;;;;4.38;1.23;;;9.50;99.90;;;;;;4961872;28;20208;-84
2024/03/16 12:01:44;;;;;;;4.82;1.38;;;9.40;99.90;;;;;;4960333;28;20188;-86
2024/03/16 12:04:13;;;;;;;7.28;2.67;;;9.30;99.90;;;;;;4977512;28;20176;-86
2024/03/16 12:06:46;;;;;;;5.15;1.23;;;9.30;99.90;;;;;;4977624;28;20255;-87
2024/03/16 12:09:30;;;;;;;6.03;1.37;;;9.30;99.90;;;;;;4977657;28;20218;-87
2024/03/16 12:11:58;;;;;;;5.97;1.60;;;9.30;99.90;;;;;;4954918;29;20672;-86
2024/03/16 12:14:24;;;;;;;3.97;1.20;;;9.40;99.90;;;;;;4937414;29;20182;-86
2024/03/16 12:16:50;;;;;;;5.78;1.50;;;9.50;99.90;;;;;;4941564;29;20196;-86
2024/03/16 12:19:17;;;;;;;7.07;1.55;;;9.50;99.90;;;;;;4941620;29;20263;-84
2024/03/16 12:21:48;;;;;;;7.03;1.50;;;9.60;99.90;;;;;;4942466;29;20678;-86
2024/03/16 12:24:19;;;;;;;3.33;1.50;;;9.50;99.90;;;;;;4942221;29;20279;-87
2024/03/16 12:26:55;;;;;;;5.93;1.13;;;9.40;99.90;;;;;;4948945;28;20184;-87
2024/03/16 12:29:21;;;;;;;5.13;1.40;;;9.50;99.90;;;;;;4974072;28;20236;-87
2024/03/16 12:31:58;;;;;;;4.32;1.10;;;9.60;99.90;;;;;;4971484;28;20196;-86
2024/03/16 12:34:26;;;;;;;11.75;2.17;;;9.60;99.90;;;;;;4941488;29;20176;-87
2024/03/16 12:36:54;;;;;;;6.60;1.70;;;9.60;99.90;;;;;;4957920;29;20296;-86
2024/03/16 12:39:22;;;;;;;7.35;1.95;;;9.50;99.90;;;;;;4939051;29;20578;-86
2024/03/16 12:41:53;;;;;;;6.20;2.00;;;9.40;99.90;;;;;;4938863;29;20185;-87
2024/03/16 12:44:22;;;;;;;7.07;1.60;;;9.40;99.90;;;;;;4940754;28;20184;-85
2024/03/16 12:50:10;;;;;;;4.13;1.20;;;9.40;99.90;;;;;;4958130;29;20232;-86
2024/03/16 12:52:36;;;;;;;7.70;1.42;;;9.50;99.90;;;;;;4957389;29;20620;-86
2024/03/16 12:55:04;;;;;;;6.28;1.50;;;9.50;99.90;;;;;;4938525;29;20201;-88
2024/03/16 12:57:32;;;;;;;6.13;1.50;;;9.50;99.90;;;;;;4941421;29;20204;-87